Latest Coastal Weather Observations for Gunn Point

IDD60701

Issued at 5:41 am CST Wednesday 4 May 2016 (issued every 10 minutes, with the page automatically refreshed every 10 minutes)

About coastal observations | Map of coastal stations | Coastal observations for NT | Marine services | Other Formats
Station Details ID: 014023 Name: GUNN POINT Lat: -12.25 Lon: 131.04 Height: 25.0 m
Data from the previous 72 hours. | See also: Recent months for locations in Northern Territory
Date/Time
CST
Temp

°C
Wind Pressure Rain
since 9am
mm
Weather Cloud Vis
km
Sea
Height
m
Swell
Dir
 
Speed
knots
Gust
knots
hPa Trend Height
m
Period
s
Dir
04/05:30am 24.5 SE 2 4 1010.5 - - - - - - - - -
04/05:00am 24.5 SE 3 5 1010.3 - - - - - - - - -
04/04:30am 24.7 SE 3 5 1010.6 - - - - - - - - -
04/04:00am 24.7 SE 3 4 1010.4 - - - - - - - - -
04/03:30am 24.8 CALM 0 2 1010.6 - - - - - - - - -
04/03:00am 24.9 CALM 0 0 1010.8 - - - - - - - - -
04/02:30am 24.9 E 1 2 1011.0 - - - - - - - - -
04/02:00am 24.9 ESE 2 3 1011.2 - - - - - - - - -
04/01:30am 25.0 SE 2 4 1011.4 - - - - - - - - -
04/01:00am 25.0 ESE 1 2 1011.7 - - - - - - - - -
04/12:30am 25.0 SE 2 3 1011.7 - - - - - - - - -
04/12:00am 24.9 SE 2 3 1011.8 - - - - - - - - -
 
Date/Time
CST
Temp

°C
Wind Pressure Rain
since 9am
mm
Weather Cloud Vis
km
Sea
Height
m
Swell
Dir
 
Speed
knots
Gust
knots
hPa Trend Height
m
Period
s
Dir
03/11:30pm 24.9 - - - 1011.6 - - - - - - - - -
03/11:00pm 25.0 SE 1 2 1012.0 - 7.8 - - - - - - -
03/10:30pm 25.2 SSE 2 4 1012.4 - 7.8 - - - - - - -
03/10:00pm 25.3 SSE 1 3 1012.3 - 7.8 - - - - - - -
03/09:30pm 25.2 CALM 0 0 1012.1 - 7.8 - - - - - - -
03/09:00pm 25.3 CALM 0 0 1011.7 - 7.8 - - - - - - -
03/08:30pm 25.4 SSE 1 3 1011.5 - 7.8 - - - - - - -
03/08:00pm 25.5 S 1 2 1010.6 - 7.8 - - - - - - -
03/07:30pm 25.6 SSE 2 3 1009.8 - 7.8 - - - - - - -
03/07:00pm 25.6 ENE 2 3 1009.5 - 7.8 - - - - - - -
03/06:30pm 25.7 CALM 0 0 1009.7 - 7.6 - - - - - - -
03/06:00pm 25.8 ENE 1 1 1009.7 - 7.6 Recent precip. - - - - - -
03/05:30pm 25.8 CALM 0 0 1009.4 - 7.4 - - - - - - -
03/05:00pm 26.0 CALM 0 1 1009.5 - 7.2 - - - - - - -
03/04:30pm 26.1 CALM 0 0 1009.3 - 6.8 - - - - - - -
03/04:00pm 26.1 W 1 2 1009.5 - 6.4 - - - - - - -
03/03:30pm 26.3 CALM 0 3 1010.1 - 6.4 - - - - - - -
03/03:00pm 26.3 SSW 1 5 1010.1 - 6.2 Recent precip. - - - - - -
03/02:30pm 26.6 NE 2 4 1010.1 - 6.0 - - - - - - -
03/02:00pm 28.6 NE 8 18 1010.0 - 1.2 - - - - - - -
03/01:30pm 29.7 ENE 5 8 1009.9 - 1.2 - - - - - - -
03/01:00pm 29.5 ENE 5 12 1010.6 - 1.0 - - - - - - -
03/12:30pm 30.9 E 5 10 1011.2 - 0.2 - - - - - - -
03/12:00pm 30.9 ENE 5 9 1011.6 - 0.2 - - - - - - -
03/11:30am 30.4 E 6 8 1011.9 - 0.2 - - - - - - -
03/11:00am 30.4 E 6 9 1012.4 - 0.2 - - - - - - -
03/10:30am 29.6 E 3 7 1012.7 - 0.2 - - - - - - -
03/10:00am 29.0 ENE 4 7 1012.5 - 0.0 - - - - - - -
03/09:30am 28.4 ENE 5 9 1012.5 - 0.0 - - - - - - -
03/09:00am 27.0 E 3 6 1011.8 - - - - - - - - -
03/08:30am 26.1 E 3 7 1012.0 - - - - - - - - -
03/08:00am 25.0 E 3 5 1011.9 - - - - - - - - -
03/07:30am 24.2 ESE 4 7 1011.7 - - - - - - - - -
03/07:00am 23.7 ESE 4 6 1011.5 - - - - - - - - -
03/06:30am 23.6 ESE 4 6 1011.3 - - - - - - - - -
03/06:00am 23.6 ESE 4 6 1010.7 - - - - - - - - -
03/05:30am 23.7 ESE 4 6 1010.4 - - - - - - - - -
03/05:00am 23.8 ESE 3 4 1010.4 - - - - - - - - -
03/04:30am 24.1 E 3 5 1010.2 - - - - - - - - -
03/04:00am 24.4 ESE 3 7 1010.2 - - - - - - - - -
03/03:30am 25.1 ESE 3 6 1010.2 - - - - - - - - -
03/03:00am 25.5 ESE 1 3 1010.5 - - - - - - - - -
03/02:30am 25.7 SE 3 5 1010.6 - - - - - - - - -
03/02:00am 25.8 SE 3 5 1010.9 - - - - - - - - -
03/01:30am 25.8 SSE 2 4 1011.3 - - - - - - - - -
03/01:00am 25.7 SE 1 2 1011.7 - - - - - - - - -
03/12:30am 25.6 SE 2 2 1012.1 - - - - - - - - -
03/12:00am 25.6 CALM 0 2 1012.3 - - - - - - - - -
 
Date/Time
CST
Temp

°C
Wind Pressure Rain
since 9am
mm
Weather Cloud Vis
km
Sea
Height
m
Swell
Dir
 
Speed
knots
Gust
knots
hPa Trend Height
m
Period
s
Dir
02/11:30pm 25.8 CALM 0 2 1012.2 - - - - - - - - -
02/11:00pm 25.6 ESE 1 3 1012.5 - - - - - - - - -
02/10:30pm 25.4 CALM 0 0 1012.4 - - - - - - - - -
02/10:00pm 25.6 CALM 0 0 1012.6 - - - - - - - - -
02/09:30pm 25.6 CALM 0 0 1012.8 - - - - - - - - -
02/09:00pm 25.9 CALM 0 0 1012.4 - 2.6 - - - - - - -
02/08:30pm 26.0 CALM 0 0 1012.2 - 2.6 - - - - - - -
02/08:00pm 26.2 CALM 0 0 1011.7 - 2.6 - - - - - - -
02/07:30pm 26.4 CALM 0 0 1011.7 - 2.6 - - - - - - -
02/07:00pm 26.7 CALM 0 0 1011.0 - 2.6 - - - - - - -
02/06:30pm 27.2 ENE 1 2 1010.5 - 2.6 - - - - - - -
02/06:00pm 27.8 CALM 0 0 1010.1 - 2.6 - - - - - - -
02/05:30pm 27.8 NE 2 5 1009.8 - 2.6 - - - - - - -
02/05:00pm 28.9 NE 5 8 1009.5 - 2.6 - - - - - - -
02/04:30pm 29.8 NE 4 7 1009.1 - 2.6 - - - - - - -
02/04:00pm 29.5 ENE 5 10 1008.9 - 2.6 - - - - - - -
02/03:30pm 29.2 NE 6 10 1009.0 - 2.6 - - - - - - -
02/03:00pm 29.2 ENE 5 9 1009.3 - 2.6 - - - - - - -
02/02:30pm 28.9 ENE 4 6 1009.6 - 2.6 - - - - - - -
02/02:00pm 28.8 NE 5 9 1010.3 - 2.6 - - - - - - -
02/01:30pm 28.6 NE 7 13 1010.5 - 2.6 - - - - - - -
02/01:00pm 28.5 NE 5 9 1010.6 - 2.6 - - - - - - -
02/12:30pm 28.2 ENE 6 12 1010.8 - 2.6 - - - - - - -
02/12:00pm 29.1 ENE 7 15 1011.1 - 0.2 Rain - - - - - -
02/11:30am 29.2 ENE 5 10 1011.3 - 0.0 - - - - - - -
02/11:00am 29.1 E 3 7 1011.7 - 0.0 - - - - - - -
02/10:30am 29.4 E 3 7 1012.1 - 0.0 - - - - - - -
02/10:00am 28.5 ESE 4 8 1012.0 - 0.0 - - - - - - -
02/09:30am 27.5 ESE 4 11 1011.8 - 0.0 - - - - - - -
02/09:00am 27.4 ESE 5 7 1011.6 - - - - - - - - -
02/08:30am 26.6 ESE 4 7 1011.6 - - - - - - - - -
02/08:00am 25.7 ESE 4 6 1011.3 - - - - - - - - -
02/07:30am 25.5 SSE 3 4 1010.8 - - - - - - - - -
02/07:00am 25.2 ESE 2 3 1010.4 - - - - - - - - -
02/06:30am 25.1 E 2 3 1010.1 - - - - - - - - -
02/06:00am 25.0 ESE 3 5 1010.1 - - - - - - - - -
02/05:30am 24.9 ESE 3 5 1009.9 - - - - - - - - -
02/05:00am 24.6 ESE 2 3 1009.5 - - - - - - - - -
02/04:30am 24.6 CALM 0 2 1009.3 - - - - - - - - -
02/04:00am 24.4 ESE 2 3 1009.2 - - - - - - - - -
02/03:30am 24.5 E 2 3 1009.6 - - - - - - - - -
02/03:00am 24.6 CALM 0 1 1009.6 - 0.0 - - - - - - -
02/02:30am 24.7 ESE 2 4 1009.5 - 0.0 - - - - - - -
02/02:00am 24.8 ESE 3 5 1010.1 - 0.0 - - - - - - -
02/01:30am 24.8 SE 3 5 1010.4 - 0.0 - - - - - - -
02/01:00am 24.9 E 2 3 1010.6 - 0.0 - - - - - - -
02/12:30am 25.1 ESE 1 2 1010.7 - 0.0 - - - - - - -
02/12:00am 25.1 ESE 2 3 1010.9 - 0.0 - - - - - - -
 
Date/Time
CST
Temp

°C
Wind Pressure Rain
since 9am
mm
Weather Cloud Vis
km
Sea
Height
m
Swell
Dir
 
Speed
knots
Gust
knots
hPa Trend Height
m
Period
s
Dir
01/11:30pm 25.3 SSE 2 3 1011.1 - 0.0 - - - - - - -
01/11:00pm 25.4 ESE 3 5 1011.6 - 0.0 - - - - - - -
01/10:30pm 25.3 E 3 5 1011.7 - 0.0 - - - - - - -
01/10:00pm 25.4 ESE 2 4 1011.7 - 0.0 - - - - - - -
01/09:30pm 25.7 ESE 4 7 1011.6 - 0.0 - - - - - - -
01/09:00pm 26.4 E 5 9 1011.9 - 0.0 - - - - - - -
01/08:30pm 26.6 ENE 4 16 1011.8 - 0.0 - - - - - - -
01/08:00pm 26.6 CALM 0 0 1010.5 - 0.0 - - - - - - -
01/07:30pm 26.9 CALM 0 0 1010.1 - 0.0 - - - - - - -
01/07:00pm 27.4 CALM 0 0 1010.0 - 0.0 - - - - - - -
01/06:30pm 28.4 CALM 0 0 1009.6 - 0.0 - - - - - - -
01/06:00pm 29.0 CALM 0 0 1009.4 - 0.0 - - - - - - -
01/05:30pm 29.6 NE 1 3 1008.5 - 0.0 - - - - - - -
01/05:00pm 30.3 NE 3 6 1008.2 - 0.0 - - - - - - -
01/04:30pm 30.6 NE 5 8 1008.3 - 0.0 - - - - - - -
01/04:00pm 31.0 NNE 5 11 1008.4 - 0.0 - - - - - - -
01/03:30pm 32.4 ENE 7 13 1008.5 - 0.0 - - - - - - -
01/03:00pm 32.6 NE 5 11 1009.0 - 0.0 - - - - - - -
01/02:30pm 32.7 ENE 5 9 1009.1 - 0.0 - - - - - - -
01/02:00pm 32.8 ENE 7 13 1009.4 - 0.0 - - - - - - -
01/01:30pm 32.7 ENE 6 11 1009.6 - 0.0 - - - - - - -
01/01:00pm 32.2 E 7 13 1010.1 - 0.0 - - - - - - -
01/12:30pm 32.1 E 6 10 1010.4 - 0.0 - - - - - - -
01/12:00pm 31.5 ENE 6 10 1010.8 - 0.0 - - - - - - -
01/11:30am 31.3 ENE 5 10 1011.1 - 0.0 - - - - - - -
01/11:00am 30.7 E 5 10 1011.5 - 0.0 - - - - - - -
01/10:30am 30.1 E 4 7 1011.7 - 0.0 - - - - - - -
01/10:00am 28.9 E 2 4 1011.7 - 0.0 - - - - - - -
01/09:30am 28.1 ESE 1 4 1012.0 - 0.0 - - - - - - -
01/09:00am 26.9 E 1 3 1012.0 - 33.0 - - - - - - -
01/08:30am 26.0 CALM 0 1 1011.9 - 33.0 - - - - - - -
01/08:00am 25.5 ESE 2 2 1011.7 - 33.0 - - - - - - -
01/07:30am 24.9 ESE 2 3 1011.4 - 33.0 - - - - - - -
01/07:00am 24.5 SW 1 3 1010.9 - 33.0 - - - - - - -
01/06:30am 24.7 CALM 0 0 1011.0 - 33.0 - - - - - - -
01/06:00am 24.7 CALM 0 0 1010.9 - 32.8 - - - - - - -

Other Formats:

Comma delimited format used in spreadsheet applications
http://www.bom.gov.au/fwo/IDD60701/IDD60701.99501.axf

JavaScript Object Notation format (JSON) in row-major order
http://www.bom.gov.au/fwo/IDD60701/IDD60701.99501.json